createdAt,value
2019-03-12T00:00:46.331Z,50.63
2019-03-12T00:03:15.181Z,54.20
2019-03-12T00:05:44.116Z,43.10
2019-03-12T00:08:12.984Z,43.57
2019-03-12T00:10:41.893Z,45.93
2019-03-12T00:13:10.824Z,51.93
2019-03-12T00:15:39.699Z,40.67
2019-03-12T00:18:08.522Z,49.40
2019-03-12T00:20:37.463Z,48.97
2019-03-12T00:23:06.336Z,50.80
2019-03-12T00:25:35.202Z,60.37
2019-03-12T00:28:04.084Z,65.10
2019-03-12T00:30:32.936Z,103.97
2019-03-12T00:33:01.826Z,105.27
2019-03-12T00:35:30.761Z,105.60
2019-03-12T00:37:59.602Z,103.37
2019-03-12T00:40:28.465Z,125.03
2019-03-12T00:42:57.444Z,114.20
2019-03-12T00:45:26.329Z,109.57
2019-03-12T00:48:04.159Z,112.07
2019-03-12T00:50:33.039Z,111.47
2019-03-12T00:53:01.899Z,105.57
2019-03-12T00:55:30.856Z,92.27
2019-03-12T00:57:59.745Z,86.47
2019-03-12T01:00:28.553Z,91.57
2019-03-12T01:02:57.882Z,100.90
2019-03-12T01:05:26.788Z,107.87
2019-03-12T01:07:55.655Z,96.50
2019-03-12T01:10:24.551Z,112.90
2019-03-12T01:12:53.457Z,99.93
2019-03-12T01:15:22.319Z,79.53
2019-03-12T01:17:51.232Z,83.43
2019-03-12T01:20:20.081Z,82.50
2019-03-12T01:22:48.953Z,76.77
2019-03-12T01:25:17.839Z,64.93
2019-03-12T01:27:46.702Z,69.83
2019-03-12T01:30:17.625Z,63.10
2019-03-12T01:32:46.939Z,62.60
2019-03-12T01:35:15.876Z,56.90
2019-03-12T01:37:44.774Z,47.03
2019-03-12T01:40:15.000Z,50.70
2019-03-12T01:42:43.838Z,50.73
2019-03-12T01:45:14.566Z,51.33
2019-03-12T01:47:43.459Z,48.07
2019-03-12T01:50:15.658Z,45.53
2019-03-12T01:52:44.468Z,42.50
2019-03-12T01:55:19.697Z,43.63
2019-03-12T01:57:48.519Z,39.20
2019-03-12T02:03:14.372Z,42.60
2019-03-12T02:05:43.240Z,40.47
2019-03-12T02:08:12.124Z,36.70
2019-03-12T02:10:41.073Z,35.27
2019-03-12T02:13:10.840Z,36.80
2019-03-12T02:15:44.810Z,41.97
2019-03-12T02:18:12.682Z,36.50
2019-03-12T02:20:41.552Z,36.07
2019-03-12T02:23:10.384Z,36.27
2019-03-12T02:25:39.284Z,34.17
2019-03-12T02:28:08.161Z,33.57
2019-03-12T02:30:37.057Z,32.77
2019-03-12T02:33:05.983Z,33.00
2019-03-12T02:35:34.830Z,32.73
2019-03-12T02:38:03.683Z,34.60
2019-03-12T02:40:34.059Z,41.00
2019-03-12T02:43:02.916Z,38.50
2019-03-12T02:45:31.804Z,37.20
2019-03-12T02:48:00.718Z,35.87
2019-03-12T02:50:29.586Z,32.07
2019-03-12T02:52:58.455Z,33.80
2019-03-12T02:55:27.590Z,35.13
2019-03-12T02:57:56.457Z,35.00
2019-03-12T03:00:26.953Z,34.90
2019-03-12T03:02:55.927Z,37.77
2019-03-12T03:05:24.749Z,42.00
2019-03-12T03:07:55.156Z,42.80
2019-03-12T03:10:24.255Z,39.87
2019-03-12T03:12:53.107Z,39.43
2019-03-12T03:15:24.212Z,38.20
2019-03-12T03:17:53.228Z,33.10
2019-03-12T03:20:22.098Z,31.00
2019-03-12T03:22:50.959Z,34.57
2019-03-12T03:25:19.890Z,37.33
2019-03-12T03:27:48.744Z,34.97
2019-03-12T03:30:36.913Z,37.13
2019-03-12T03:33:05.914Z,37.90
2019-03-12T03:35:34.923Z,43.33
2019-03-12T03:38:03.830Z,42.17
2019-03-12T03:40:32.709Z,35.77
2019-03-12T03:43:01.587Z,36.43
2019-03-12T03:45:30.474Z,37.97
2019-03-12T03:47:59.344Z,34.33
2019-03-12T03:50:28.198Z,51.33
2019-03-12T03:52:57.094Z,33.47
2019-03-12T03:55:25.937Z,38.37
2019-03-12T03:57:54.794Z,36.57
2019-03-12T04:00:24.810Z,37.40
2019-03-12T04:02:53.700Z,37.00
2019-03-12T04:05:22.613Z,43.23
2019-03-12T04:07:51.745Z,36.93
2019-03-12T04:10:20.594Z,39.20
2019-03-12T04:12:49.446Z,39.93
2019-03-12T04:15:19.280Z,39.83
2019-03-12T04:17:49.002Z,38.70
2019-03-12T04:20:18.967Z,40.83
2019-03-12T04:22:47.936Z,42.13
2019-03-12T04:25:16.783Z,44.93
2019-03-12T04:27:45.643Z,43.07
2019-03-12T04:30:18.629Z,42.70
2019-03-12T04:32:47.490Z,41.77
2019-03-12T04:35:22.061Z,45.97
2019-03-12T04:37:50.943Z,47.07
2019-03-12T04:40:19.817Z,43.47
2019-03-12T04:42:48.725Z,41.87
2019-03-12T04:45:18.184Z,45.93
2019-03-12T04:47:47.055Z,45.23
2019-03-12T04:50:16.051Z,42.67
2019-03-12T04:52:44.926Z,40.40
2019-03-12T04:55:15.897Z,39.70
2019-03-12T04:57:44.919Z,42.50
2019-03-12T05:00:16.061Z,48.93
2019-03-12T05:02:44.913Z,44.43
2019-03-12T05:05:14.472Z,40.90
2019-03-12T05:07:43.339Z,37.17
2019-03-12T05:10:16.597Z,37.70
2019-03-12T05:12:45.496Z,37.53
2019-03-12T05:15:20.469Z,38.63
2019-03-12T05:17:49.418Z,39.33
2019-03-12T05:20:18.419Z,43.63
2019-03-12T05:22:47.272Z,45.33
2019-03-12T05:25:16.277Z,53.90
2019-03-12T05:27:45.240Z,55.13
2019-03-12T05:30:16.499Z,55.73
2019-03-12T05:32:45.425Z,58.80
2019-03-12T05:35:14.578Z,56.20
2019-03-12T05:37:43.464Z,49.23
2019-03-12T05:40:18.430Z,51.07
2019-03-12T05:42:47.416Z,48.53
2019-03-12T05:45:18.815Z,86.77
2019-03-12T05:47:47.718Z,49.03
2019-03-12T05:50:21.427Z,41.53
2019-03-12T05:52:50.264Z,43.03
2019-03-12T05:55:19.273Z,41.20
2019-03-12T05:57:48.135Z,41.90
2019-03-12T06:00:25.194Z,37.47
2019-03-12T06:02:54.124Z,38.40
2019-03-12T06:05:24.451Z,42.07
2019-03-12T06:07:55.509Z,41.73
2019-03-12T06:10:23.903Z,40.07
2019-03-12T06:12:52.775Z,36.87
2019-03-12T06:15:21.707Z,36.00
2019-03-12T06:17:50.569Z,42.10
2019-03-12T06:20:19.434Z,54.57
2019-03-12T06:22:48.354Z,52.97
2019-03-12T06:25:17.314Z,59.63
2019-03-12T06:27:46.189Z,61.30
2019-03-12T06:30:19.375Z,56.47
2019-03-12T06:32:50.276Z,57.13
2019-03-12T06:35:20.709Z,48.83
2019-03-12T06:38:03.266Z,57.83
2019-03-12T06:40:33.735Z,80.50
2019-03-12T06:43:20.503Z,70.60
2019-03-12T06:45:54.119Z,74.00
2019-03-12T06:48:33.700Z,67.10
2019-03-12T06:51:09.724Z,64.67
2019-03-12T06:53:40.233Z,64.20
2019-03-12T06:56:10.712Z,62.90
2019-03-12T06:58:57.735Z,55.97
2019-03-12T07:01:44.759Z,59.53
2019-03-12T07:04:30.377Z,64.43
2019-03-12T07:07:12.898Z,61.57
2019-03-12T07:09:43.527Z,54.93
2019-03-12T07:12:16.775Z,48.37
2019-03-12T07:14:49.997Z,47.23
2019-03-12T07:17:20.426Z,44.90
2019-03-12T07:19:53.347Z,45.27
2019-03-12T07:22:35.512Z,38.53
2019-03-12T07:25:09.072Z,40.93
2019-03-12T07:27:56.021Z,50.87
2019-03-12T07:30:26.541Z,46.17
2019-03-12T07:33:00.095Z,49.20
2019-03-12T07:35:49.023Z,47.63
2019-03-12T07:38:37.334Z,36.47
2019-03-12T07:41:25.182Z,45.67
2019-03-12T07:44:00.988Z,45.23
2019-03-12T07:46:46.397Z,43.60
2019-03-12T07:49:35.256Z,43.13
2019-03-12T07:52:08.671Z,42.37
2019-03-12T07:54:49.612Z,40.27
2019-03-12T07:57:22.585Z,42.07
2019-03-12T07:59:52.997Z,56.10
2019-03-12T08:02:26.718Z,48.00
2019-03-12T08:05:03.320Z,49.17
2019-03-12T08:07:50.387Z,51.80
2019-03-12T08:10:30.178Z,56.67
2019-03-12T08:13:17.621Z,54.53
2019-03-12T08:15:50.824Z,48.00
2019-03-12T08:18:36.408Z,50.40
2019-03-12T08:21:25.355Z,46.40
2019-03-12T08:24:13.609Z,46.63
2019-03-12T08:26:55.316Z,47.70
2019-03-12T08:29:25.807Z,58.93
2019-03-12T08:32:14.542Z,57.60
2019-03-12T08:34:45.008Z,48.17
2019-03-12T08:37:27.263Z,47.20
2019-03-12T08:40:09.884Z,66.13
2019-03-12T08:42:53.718Z,64.67
2019-03-12T08:45:21.481Z,59.10
2019-03-12T08:47:57.899Z,52.47
2019-03-12T08:50:28.351Z,59.50
2019-03-12T08:53:04.562Z,57.80
2019-03-12T08:55:43.820Z,63.43
2019-03-12T08:58:30.432Z,58.33
2019-03-12T09:01:03.723Z,56.70
2019-03-12T09:03:34.128Z,60.47
2019-03-12T09:06:06.198Z,58.43
2019-03-12T09:08:48.881Z,46.33
2019-03-12T09:11:36.659Z,45.07
2019-03-12T09:14:10.096Z,48.67
2019-03-12T09:16:40.531Z,46.40
2019-03-12T09:19:20.426Z,42.97
2019-03-12T09:21:53.691Z,41.87
2019-03-12T09:24:28.043Z,44.23
2019-03-12T09:27:01.209Z,39.97
2019-03-12T09:29:31.710Z,42.73
2019-03-12T09:32:19.988Z,47.53
2019-03-12T09:34:59.547Z,41.57
2019-03-12T09:37:38.792Z,48.77
2019-03-12T09:40:13.877Z,36.10
2019-03-12T09:42:46.780Z,35.67
2019-03-12T09:45:17.248Z,28.40
2019-03-12T09:48:03.896Z,36.33
2019-03-12T09:50:34.357Z,28.43
2019-03-12T09:53:10.774Z,28.43
2019-03-12T09:55:41.199Z,25.20
2019-03-12T09:58:24.015Z,25.27
2019-03-12T10:01:00.487Z,27.27
2019-03-12T10:03:33.715Z,24.60
2019-03-12T10:06:10.082Z,25.60
2019-03-12T10:08:46.550Z,27.73
2019-03-12T10:11:16.985Z,20.73
2019-03-12T10:13:47.401Z,22.57
2019-03-12T10:16:23.941Z,30.52
2019-03-12T10:18:54.371Z,29.42
2019-03-12T10:21:24.822Z,29.23
2019-03-12T10:24:10.727Z,28.47
2019-03-12T10:26:41.137Z,26.07
2019-03-12T10:29:17.805Z,24.60
2019-03-12T10:31:49.049Z,30.07
2019-03-12T10:34:35.920Z,31.53
2019-03-12T10:37:11.793Z,33.07
2019-03-12T10:40:15.716Z,31.37
2019-03-12T10:43:00.341Z,30.85
2019-03-12T10:45:30.994Z,31.67
2019-03-12T10:48:10.708Z,27.47
2019-03-12T10:50:39.647Z,25.20
2019-03-12T10:53:08.484Z,29.20
2019-03-12T10:55:37.348Z,26.07
2019-03-12T10:58:06.277Z,24.27
2019-03-12T11:00:35.652Z,26.20
2019-03-12T11:03:04.618Z,27.73
2019-03-12T11:05:45.460Z,27.17
2019-03-12T11:08:06.720Z,25.60
2019-03-12T11:10:34.637Z,21.60
2019-03-12T11:13:03.680Z,23.13
2019-03-12T11:15:32.519Z,33.27
2019-03-12T11:18:01.385Z,24.70
2019-03-12T11:20:30.313Z,23.47
2019-03-12T11:22:59.252Z,24.73
2019-03-12T11:25:28.443Z,21.20
2019-03-12T11:27:59.133Z,15.20
2019-03-12T11:30:28.065Z,22.10
2019-03-12T11:32:57.767Z,18.80
2019-03-12T11:35:26.717Z,22.83
2019-03-12T11:37:55.566Z,15.50
2019-03-12T11:40:31.626Z,14.97
2019-03-12T11:42:56.941Z,19.13
2019-03-12T11:45:35.456Z,32.30
2019-03-12T11:47:56.284Z,18.80
2019-03-12T11:50:26.196Z,17.37
2019-03-12T11:52:58.252Z,14.67
2019-03-12T11:55:25.574Z,17.77
2019-03-12T11:57:54.490Z,11.83
2019-03-12T12:00:25.946Z,13.03
2019-03-12T12:02:59.895Z,18.30
2019-03-12T12:05:25.418Z,35.90
2019-03-12T12:07:54.314Z,14.67
2019-03-12T12:10:23.362Z,13.07
2019-03-12T12:12:52.332Z,19.70
2019-03-12T12:15:21.158Z,15.03
2019-03-12T12:17:50.031Z,17.17
2019-03-12T12:20:28.824Z,24.10
2019-03-12T12:22:49.526Z,22.33
2019-03-12T12:25:19.892Z,19.93
2019-03-12T12:27:48.816Z,17.70
2019-03-12T12:30:21.760Z,15.60
2019-03-12T12:32:50.704Z,16.03
2019-03-12T12:35:19.957Z,13.73
2019-03-12T12:37:48.807Z,12.07
2019-03-12T12:40:20.642Z,13.67
2019-03-12T12:42:49.568Z,15.20
2019-03-12T12:45:24.384Z,11.10
2019-03-12T12:47:53.214Z,12.43
2019-03-12T12:50:22.489Z,22.17
2019-03-12T12:52:51.360Z,28.37
2019-03-12T12:55:20.222Z,17.83
2019-03-12T12:57:49.110Z,14.30
2019-03-12T13:00:22.667Z,14.57
2019-03-12T13:02:51.518Z,10.53
2019-03-12T13:05:20.519Z,10.23
2019-03-12T13:07:49.370Z,11.47
2019-03-12T13:10:28.760Z,13.00
2019-03-12T13:12:57.586Z,11.33
2019-03-12T13:15:26.453Z,10.30
2019-03-12T13:17:55.335Z,9.13
2019-03-12T13:20:24.193Z,8.10
2019-03-12T13:22:53.035Z,8.90
2019-03-12T13:25:21.926Z,9.07
2019-03-12T13:27:51.762Z,10.43
2019-03-12T13:30:28.394Z,9.67
2019-03-12T13:32:57.229Z,14.07
2019-03-12T13:35:26.084Z,11.10
2019-03-12T13:37:55.082Z,10.13
2019-03-12T13:40:25.613Z,10.63
2019-03-12T13:42:54.698Z,12.23
2019-03-12T13:45:26.355Z,9.93
2019-03-12T13:47:55.939Z,10.77
2019-03-12T13:50:25.062Z,10.20
2019-03-12T13:52:53.924Z,9.67
2019-03-12T13:55:22.876Z,10.83
2019-03-12T13:57:51.784Z,7.60
2019-03-12T14:00:22.999Z,6.47
2019-03-12T14:02:52.069Z,7.87
2019-03-12T14:05:20.907Z,9.17
2019-03-12T14:07:49.795Z,7.43
2019-03-12T14:10:25.399Z,7.80
2019-03-12T14:12:55.307Z,9.27
2019-03-12T14:15:31.387Z,11.50
2019-03-12T14:18:00.845Z,6.97
2019-03-12T14:20:43.884Z,7.73
2019-03-12T14:23:18.232Z,15.10
2019-03-12T14:25:47.142Z,7.80
2019-03-12T14:28:16.017Z,8.17
2019-03-12T14:30:44.890Z,8.23
2019-03-12T14:33:13.746Z,9.67
2019-03-12T14:35:51.283Z,10.97
2019-03-12T14:38:13.365Z,8.37
2019-03-12T14:40:42.314Z,8.70
2019-03-12T14:43:11.256Z,9.80
2019-03-12T14:45:42.801Z,10.27
2019-03-12T14:48:43.734Z,25.63
2019-03-12T14:51:18.561Z,11.50
2019-03-12T14:53:50.350Z,15.60
2019-03-12T14:56:19.411Z,12.57
2019-03-12T14:58:51.174Z,12.30
2019-03-12T15:01:18.828Z,12.67
2019-03-12T15:03:47.674Z,9.70
2019-03-12T15:06:16.586Z,10.93
2019-03-12T15:08:45.415Z,9.87
2019-03-12T15:11:14.285Z,15.90
2019-03-12T15:13:43.179Z,11.57
2019-03-12T15:16:11.990Z,11.73
2019-03-12T15:18:40.803Z,10.13
2019-03-12T15:21:09.813Z,12.73
2019-03-12T15:23:38.665Z,9.60
2019-03-12T15:26:07.605Z,12.60
2019-03-12T15:28:36.528Z,13.30
2019-03-12T15:31:05.390Z,19.90
2019-03-12T15:33:34.238Z,13.37
2019-03-12T15:36:03.177Z,11.50
2019-03-12T15:38:32.049Z,13.60
2019-03-12T15:41:00.915Z,15.90
2019-03-12T15:43:29.989Z,17.73
2019-03-12T15:45:58.861Z,37.47
2019-03-12T15:48:27.692Z,16.77
2019-03-12T15:50:56.609Z,18.30
2019-03-12T15:53:25.428Z,14.47
2019-03-12T15:55:55.784Z,23.27
2019-03-12T15:58:24.842Z,15.50
2019-03-12T16:00:53.673Z,12.77
2019-03-12T16:03:22.525Z,13.40
2019-03-12T16:05:51.450Z,14.53
2019-03-12T16:08:20.303Z,13.33
2019-03-12T16:10:58.102Z,11.77
2019-03-12T16:13:19.692Z,18.53
2019-03-12T16:15:48.556Z,22.77
2019-03-12T16:18:17.405Z,22.73
2019-03-12T16:20:46.291Z,24.03
2019-03-12T16:23:15.661Z,37.93
2019-03-12T16:25:44.524Z,31.70
2019-03-12T16:28:13.638Z,44.07
2019-03-12T16:30:42.496Z,44.50
2019-03-12T16:33:11.343Z,47.07
2019-03-12T16:35:40.196Z,55.67
2019-03-12T16:38:08.984Z,54.27
2019-03-12T16:40:37.885Z,55.63
2019-03-12T16:43:06.791Z,59.67
2019-03-12T16:45:35.651Z,58.37
2019-03-12T16:48:04.501Z,75.57
2019-03-12T16:50:33.406Z,59.53
2019-03-12T16:53:02.248Z,63.13
2019-03-12T16:55:31.114Z,68.27
2019-03-12T16:57:59.978Z,72.17
2019-03-12T17:00:28.839Z,67.37
2019-03-12T17:02:57.698Z,70.47
2019-03-12T17:05:26.663Z,87.97
2019-03-12T17:07:55.654Z,73.47
2019-03-12T17:10:24.505Z,75.47
2019-03-12T17:12:53.432Z,66.10
2019-03-12T17:15:23.688Z,70.83
2019-03-12T17:17:52.545Z,67.07
2019-03-12T17:20:21.558Z,80.83
2019-03-12T17:22:50.484Z,77.00
2019-03-12T17:25:19.349Z,89.33
2019-03-12T17:27:51.214Z,86.67
2019-03-12T17:30:20.040Z,97.93
2019-03-12T17:32:48.916Z,92.37
2019-03-12T17:35:29.896Z,108.17
2019-03-12T17:37:58.759Z,105.27
2019-03-12T17:40:27.634Z,102.80
2019-03-12T17:42:56.529Z,99.23
2019-03-12T17:45:25.398Z,113.93
2019-03-12T17:47:54.251Z,121.47
2019-03-12T17:50:23.141Z,109.47
2019-03-12T17:52:51.972Z,110.70
2019-03-12T17:55:20.852Z,111.97
2019-03-12T17:57:50.940Z,92.73
2019-03-12T18:00:34.473Z,236.80
2019-03-12T18:03:03.387Z,250.47
2019-03-12T18:05:32.340Z,342.07
2019-03-12T18:08:01.193Z,304.60
2019-03-12T18:10:30.101Z,333.90
2019-03-12T18:12:58.967Z,275.00
2019-03-12T18:15:27.831Z,197.37
2019-03-12T18:17:56.753Z,173.03
2019-03-12T18:20:25.613Z,178.10
2019-03-12T18:22:54.472Z,181.90
2019-03-12T18:25:32.212Z,204.43
2019-03-12T18:28:01.045Z,228.40
2019-03-12T18:30:29.893Z,209.80
2019-03-12T18:32:58.838Z,201.33
2019-03-12T18:35:27.710Z,249.13
2019-03-12T18:37:56.567Z,277.37
2019-03-12T18:40:26.861Z,220.43
2019-03-12T18:42:55.729Z,274.83
2019-03-12T18:45:33.969Z,235.53
2019-03-12T18:48:02.811Z,190.57
2019-03-12T18:50:31.675Z,198.57
2019-03-12T18:53:00.595Z,218.33
2019-03-12T18:55:38.208Z,214.27
2019-03-12T18:58:07.465Z,209.17
2019-03-12T19:00:37.837Z,176.13
2019-03-12T19:03:06.738Z,197.77
2019-03-12T19:05:35.621Z,197.73
2019-03-12T19:08:04.467Z,191.20
2019-03-12T19:10:33.343Z,165.33
2019-03-12T19:13:02.264Z,167.57
2019-03-12T19:15:31.099Z,161.50
2019-03-12T19:17:59.968Z,180.50
2019-03-12T19:20:28.854Z,173.33
2019-03-12T19:22:57.723Z,199.53
2019-03-12T19:25:38.105Z,202.20
2019-03-12T19:28:06.513Z,212.47
2019-03-12T19:30:35.473Z,218.20
2019-03-12T19:33:07.185Z,209.47
2019-03-12T19:35:36.067Z,225.80
2019-03-12T19:38:05.314Z,217.37
2019-03-12T19:40:45.794Z,194.30
2019-03-12T19:43:14.658Z,141.47
2019-03-12T19:45:44.721Z,144.00
2019-03-12T19:48:13.840Z,163.47
2019-03-12T19:50:42.673Z,181.90
2019-03-12T19:53:11.531Z,182.07
2019-03-12T19:55:49.216Z,228.27
2019-03-12T19:58:18.082Z,263.77
2019-03-12T20:00:48.338Z,298.77
2019-03-12T20:03:18.132Z,302.63
2019-03-12T20:05:46.997Z,321.23
2019-03-12T20:08:15.833Z,303.93
2019-03-12T20:10:59.949Z,326.83
2019-03-12T20:13:43.807Z,326.93
2019-03-12T20:16:30.724Z,307.27
2019-03-12T20:19:22.333Z,283.17
2019-03-12T20:22:03.249Z,280.37
2019-03-12T20:24:47.286Z,287.57
2019-03-12T20:27:38.738Z,283.50
2019-03-12T20:30:16.464Z,260.93
2019-03-12T20:33:04.782Z,273.43
2019-03-12T20:36:09.794Z,362.93
2019-03-12T20:39:05.405Z,360.03
2019-03-12T20:42:12.136Z,300.87
2019-03-12T20:44:58.905Z,270.67
2019-03-12T20:48:02.350Z,278.37
2019-03-12T20:50:52.122Z,264.53
2019-03-12T20:53:55.622Z,280.33
2019-03-12T20:56:33.560Z,293.83
2019-03-12T20:59:20.322Z,300.13
2019-03-12T21:02:18.695Z,303.63
2019-03-12T21:05:19.428Z,313.50
2019-03-12T21:08:21.504Z,277.13
2019-03-12T21:11:26.767Z,325.90
2019-03-12T21:14:24.482Z,337.33
2019-03-12T21:17:23.590Z,335.13
2019-03-12T21:20:16.327Z,335.20
2019-03-12T21:22:56.998Z,339.43
2019-03-12T21:25:34.831Z,346.87
2019-03-12T21:28:25.100Z,364.37
2019-03-12T21:30:54.024Z,330.97
2019-03-12T21:33:22.890Z,333.47
2019-03-12T21:35:51.718Z,358.53
2019-03-12T21:38:20.691Z,349.73
2019-03-12T21:40:49.791Z,336.73
2019-03-12T21:43:18.652Z,335.00
2019-03-12T21:45:47.652Z,319.17
2019-03-12T21:48:16.949Z,273.83
2019-03-12T21:50:45.785Z,256.00
2019-03-12T21:53:16.401Z,268.40
2019-03-12T21:55:45.292Z,279.50
2019-03-12T21:58:14.155Z,254.90
2019-03-12T22:00:43.086Z,250.13
2019-03-12T22:03:11.940Z,215.07
2019-03-12T22:05:40.871Z,194.80
2019-03-12T22:08:09.790Z,205.33
2019-03-12T22:10:38.646Z,186.20
2019-03-12T22:13:07.532Z,177.53
2019-03-12T22:15:36.550Z,179.87
2019-03-12T22:18:05.400Z,189.17
2019-03-12T22:20:34.245Z,265.80
2019-03-12T22:23:07.707Z,294.63
2019-03-12T22:25:36.571Z,244.73
2019-03-12T22:28:05.425Z,233.87
2019-03-12T22:30:34.335Z,237.63
2019-03-12T22:33:03.178Z,254.43
2019-03-12T22:35:32.029Z,249.43
2019-03-12T22:38:00.979Z,281.63
2019-03-12T22:40:29.831Z,296.63
2019-03-12T22:42:58.694Z,327.53
2019-03-12T22:45:27.590Z,329.07
2019-03-12T22:47:56.434Z,256.70
2019-03-12T22:50:26.188Z,270.40
2019-03-12T22:52:55.116Z,272.47
2019-03-12T22:55:23.951Z,258.57
2019-03-12T22:57:52.837Z,278.20
2019-03-12T23:00:21.962Z,296.23
2019-03-12T23:02:50.803Z,285.50
2019-03-12T23:05:19.666Z,302.97
2019-03-12T23:07:48.553Z,295.77
2019-03-12T23:10:18.403Z,291.93
2019-03-12T23:12:47.268Z,326.00
2019-03-12T23:15:17.561Z,311.60
2019-03-12T23:17:46.499Z,304.83
2019-03-12T23:20:17.552Z,283.70
2019-03-12T23:22:46.484Z,344.83
2019-03-12T23:25:15.444Z,426.53
2019-03-12T23:27:44.292Z,250.90
2019-03-12T23:30:21.111Z,254.87
2019-03-12T23:32:50.273Z,272.47
2019-03-12T23:35:19.236Z,285.30
2019-03-12T23:37:48.145Z,279.33
2019-03-12T23:40:18.306Z,330.23
2019-03-12T23:42:47.260Z,403.47
2019-03-12T23:45:17.853Z,443.07
2019-03-12T23:47:50.007Z,447.60
2019-03-12T23:50:18.316Z,454.20
2019-03-12T23:52:47.414Z,473.90
2019-03-12T23:55:17.943Z,500.80
2019-03-12T23:57:46.809Z,449.23
